sensor_id;sensor_type;location;lat;lon;timestamp;temperature;humidity
51765;DHT22;37835;53.256;6.456;2023-04-12T00:00:22;7.10;99.90
51765;DHT22;37835;53.256;6.456;2023-04-12T00:02:48;7.10;99.90
51765;DHT22;37835;53.256;6.456;2023-04-12T00:05:14;7.10;99.90
51765;DHT22;37835;53.256;6.456;2023-04-12T00:07:39;7.10;99.90
51765;DHT22;37835;53.256;6.456;2023-04-12T00:10:07;7.10;99.90
51765;DHT22;37835;53.256;6.456;2023-04-12T00:12:34;7.10;99.90
51765;DHT22;37835;53.256;6.456;2023-04-12T00:14:59;7.10;99.90
51765;DHT22;37835;53.256;6.456;2023-04-12T00:17:26;7.10;99.90
51765;DHT22;37835;53.256;6.456;2023-04-12T00:19:51;7.20;99.90
51765;DHT22;37835;53.256;6.456;2023-04-12T00:22:17;7.20;99.90
51765;DHT22;37835;53.256;6.456;2023-04-12T00:24:43;7.20;99.90
51765;DHT22;37835;53.256;6.456;2023-04-12T00:27:08;7.20;99.90
51765;DHT22;37835;53.256;6.456;2023-04-12T00:29:34;7.30;99.90
51765;DHT22;37835;53.256;6.456;2023-04-12T00:31:59;7.30;99.90
51765;DHT22;37835;53.256;6.456;2023-04-12T00:34:29;7.30;99.90
51765;DHT22;37835;53.256;6.456;2023-04-12T00:36:55;7.30;99.90
51765;DHT22;37835;53.256;6.456;2023-04-12T00:39:21;7.30;99.90
51765;DHT22;37835;53.256;6.456;2023-04-12T00:41:47;7.40;99.90
51765;DHT22;37835;53.256;6.456;2023-04-12T00:44:12;7.40;99.90
51765;DHT22;37835;53.256;6.456;2023-04-12T00:46:38;7.50;99.90
51765;DHT22;37835;53.256;6.456;2023-04-12T00:49:04;7.50;99.90
51765;DHT22;37835;53.256;6.456;2023-04-12T00:51:31;7.50;99.90
51765;DHT22;37835;53.256;6.456;2023-04-12T00:53:59;7.50;99.90
51765;DHT22;37835;53.256;6.456;2023-04-12T00:56:26;7.60;99.90
51765;DHT22;37835;53.256;6.456;2023-04-12T00:58:56;7.60;99.90
51765;DHT22;37835;53.256;6.456;2023-04-12T01:01:22;7.60;99.90
51765;DHT22;37835;53.256;6.456;2023-04-12T01:03:49;7.60;99.90
51765;DHT22;37835;53.256;6.456;2023-04-12T01:06:43;7.60;99.90
51765;DHT22;37835;53.256;6.456;2023-04-12T01:12:54;7.70;99.90
51765;DHT22;37835;53.256;6.456;2023-04-12T01:15:26;7.70;99.90
51765;DHT22;37835;53.256;6.456;2023-04-12T01:18:00;7.90;99.90
51765;DHT22;37835;53.256;6.456;2023-04-12T01:20:32;7.70;99.90
51765;DHT22;37835;53.256;6.456;2023-04-12T01:28:14;7.80;99.90
51765;DHT22;37835;53.256;6.456;2023-04-12T01:30:41;7.80;99.90
51765;DHT22;37835;53.256;6.456;2023-04-12T01:33:11;7.80;99.90
51765;DHT22;37835;53.256;6.456;2023-04-12T01:35:37;7.80;99.90
51765;DHT22;37835;53.256;6.456;2023-04-12T01:38:04;7.90;99.90
51765;DHT22;37835;53.256;6.456;2023-04-12T01:40:30;7.90;99.90
51765;DHT22;37835;53.256;6.456;2023-04-12T01:45:28;7.90;99.90
51765;DHT22;37835;53.256;6.456;2023-04-12T01:47:54;7.90;99.90
51765;DHT22;37835;53.256;6.456;2023-04-12T01:50:22;7.90;99.90
51765;DHT22;37835;53.256;6.456;2023-04-12T01:53:02;7.90;99.90
51765;DHT22;37835;53.256;6.456;2023-04-12T01:55:29;7.90;99.90
51765;DHT22;37835;53.256;6.456;2023-04-12T01:57:56;8.30;99.90
51765;DHT22;37835;53.256;6.456;2023-04-12T02:00:24;7.90;99.90
51765;DHT22;37835;53.256;6.456;2023-04-12T02:02:50;8.00;99.90
51765;DHT22;37835;53.256;6.456;2023-04-12T02:05:16;7.90;99.90
51765;DHT22;37835;53.256;6.456;2023-04-12T02:07:42;8.00;99.90
51765;DHT22;37835;53.256;6.456;2023-04-12T02:10:13;8.00;99.90
51765;DHT22;37835;53.256;6.456;2023-04-12T02:12:39;8.70;99.90
51765;DHT22;37835;53.256;6.456;2023-04-12T02:15:05;8.00;99.90
51765;DHT22;37835;53.256;6.456;2023-04-12T02:19:58;8.00;99.90
51765;DHT22;37835;53.256;6.456;2023-04-12T02:22:24;8.00;99.90
51765;DHT22;37835;53.256;6.456;2023-04-12T02:24:49;8.10;99.90
51765;DHT22;37835;53.256;6.456;2023-04-12T02:27:15;8.00;99.90
51765;DHT22;37835;53.256;6.456;2023-04-12T02:29:43;8.10;99.90
51765;DHT22;37835;53.256;6.456;2023-04-12T02:32:09;8.00;99.90
51765;DHT22;37835;53.256;6.456;2023-04-12T02:34:35;8.00;99.90
51765;DHT22;37835;53.256;6.456;2023-04-12T02:37:02;8.00;99.90
51765;DHT22;37835;53.256;6.456;2023-04-12T02:39:29;8.10;99.90
51765;DHT22;37835;53.256;6.456;2023-04-12T02:41:56;8.10;99.90
51765;DHT22;37835;53.256;6.456;2023-04-12T02:44:22;8.10;99.90
51765;DHT22;37835;53.256;6.456;2023-04-12T02:46:48;7.10;99.90
51765;DHT22;37835;53.256;6.456;2023-04-12T02:49:13;8.10;99.90
51765;DHT22;37835;53.256;6.456;2023-04-12T02:51:39;8.10;99.90
51765;DHT22;37835;53.256;6.456;2023-04-12T02:54:04;8.00;99.90
51765;DHT22;37835;53.256;6.456;2023-04-12T02:56:30;8.00;99.90
51765;DHT22;37835;53.256;6.456;2023-04-12T02:58:59;8.00;99.90
51765;DHT22;37835;53.256;6.456;2023-04-12T03:01:24;8.00;99.90
51765;DHT22;37835;53.256;6.456;2023-04-12T03:03:50;8.00;99.90
51765;DHT22;37835;53.256;6.456;2023-04-12T03:06:16;8.20;99.90
51765;DHT22;37835;53.256;6.456;2023-04-12T03:08:41;8.00;99.90
51765;DHT22;37835;53.256;6.456;2023-04-12T03:11:07;8.00;99.90
51765;DHT22;37835;53.256;6.456;2023-04-12T03:13:33;8.00;99.90
51765;DHT22;37835;53.256;6.456;2023-04-12T03:15:58;8.00;99.90
51765;DHT22;37835;53.256;6.456;2023-04-12T03:18:24;8.00;99.90
51765;DHT22;37835;53.256;6.456;2023-04-12T03:20:50;8.00;99.90
51765;DHT22;37835;53.256;6.456;2023-04-12T03:23:17;8.00;99.90
51765;DHT22;37835;53.256;6.456;2023-04-12T03:25:43;8.00;99.90
51765;DHT22;37835;53.256;6.456;2023-04-12T03:28:09;8.00;99.90
51765;DHT22;37835;53.256;6.456;2023-04-12T03:30:34;8.00;99.90
51765;DHT22;37835;53.256;6.456;2023-04-12T03:33:00;8.00;99.90
51765;DHT22;37835;53.256;6.456;2023-04-12T03:35:26;8.00;99.90
51765;DHT22;37835;53.256;6.456;2023-04-12T03:37:51;8.00;99.90
51765;DHT22;37835;53.256;6.456;2023-04-12T03:40:17;8.00;99.90
51765;DHT22;37835;53.256;6.456;2023-04-12T03:42:43;8.00;99.90
51765;DHT22;37835;53.256;6.456;2023-04-12T03:45:08;8.00;99.90
51765;DHT22;37835;53.256;6.456;2023-04-12T03:47:34;8.10;99.90
51765;DHT22;37835;53.256;6.456;2023-04-12T03:50:05;8.00;99.90
51765;DHT22;37835;53.256;6.456;2023-04-12T03:52:31;8.00;99.90
51765;DHT22;37835;53.256;6.456;2023-04-12T03:54:57;8.00;99.90
51765;DHT22;37835;53.256;6.456;2023-04-12T03:57:23;8.00;99.90
51765;DHT22;37835;53.256;6.456;2023-04-12T03:59:48;8.00;99.90
51765;DHT22;37835;53.256;6.456;2023-04-12T04:02:14;8.00;99.90
51765;DHT22;37835;53.256;6.456;2023-04-12T04:04:40;8.00;99.90
51765;DHT22;37835;53.256;6.456;2023-04-12T04:07:05;7.90;99.90
51765;DHT22;37835;53.256;6.456;2023-04-12T04:09:32;7.90;99.90
51765;DHT22;37835;53.256;6.456;2023-04-12T04:11:58;7.90;99.90
51765;DHT22;37835;53.256;6.456;2023-04-12T04:14:24;8.00;99.90
51765;DHT22;37835;53.256;6.456;2023-04-12T04:16:50;7.90;99.90
51765;DHT22;37835;53.256;6.456;2023-04-12T04:19:15;7.90;99.90
51765;DHT22;37835;53.256;6.456;2023-04-12T04:21:41;7.90;99.90
51765;DHT22;37835;53.256;6.456;2023-04-12T04:24:09;7.90;99.90
51765;DHT22;37835;53.256;6.456;2023-04-12T04:26:36;7.90;99.90
51765;DHT22;37835;53.256;6.456;2023-04-12T04:29:03;8.70;99.90
51765;DHT22;37835;53.256;6.456;2023-04-12T04:31:30;7.80;99.90
51765;DHT22;37835;53.256;6.456;2023-04-12T04:34:01;7.80;99.90
51765;DHT22;37835;53.256;6.456;2023-04-12T04:36:28;7.80;99.90
51765;DHT22;37835;53.256;6.456;2023-04-12T04:38:55;7.80;99.90
51765;DHT22;37835;53.256;6.456;2023-04-12T04:41:21;7.80;99.90
51765;DHT22;37835;53.256;6.456;2023-04-12T04:43:49;7.80;99.90
51765;DHT22;37835;53.256;6.456;2023-04-12T04:46:15;7.80;99.90
51765;DHT22;37835;53.256;6.456;2023-04-12T04:48:42;7.80;99.90
51765;DHT22;37835;53.256;6.456;2023-04-12T04:51:07;7.80;99.90
51765;DHT22;37835;53.256;6.456;2023-04-12T04:53:33;7.70;99.90
51765;DHT22;37835;53.256;6.456;2023-04-12T04:55:59;7.70;99.90
51765;DHT22;37835;53.256;6.456;2023-04-12T04:58:25;7.90;99.90
51765;DHT22;37835;53.256;6.456;2023-04-12T05:00:51;7.70;99.90
51765;DHT22;37835;53.256;6.456;2023-04-12T05:03:20;7.70;99.90
51765;DHT22;37835;53.256;6.456;2023-04-12T05:05:50;7.70;99.90
51765;DHT22;37835;53.256;6.456;2023-04-12T05:08:16;7.70;99.90
51765;DHT22;37835;53.256;6.456;2023-04-12T05:10:42;7.70;99.90
51765;DHT22;37835;53.256;6.456;2023-04-12T05:13:08;7.70;99.90
51765;DHT22;37835;53.256;6.456;2023-04-12T05:15:34;7.70;99.90
51765;DHT22;37835;53.256;6.456;2023-04-12T05:18:00;7.60;99.90
51765;DHT22;37835;53.256;6.456;2023-04-12T05:20:26;8.10;99.90
51765;DHT22;37835;53.256;6.456;2023-04-12T05:22:51;7.60;99.90
51765;DHT22;37835;53.256;6.456;2023-04-12T05:25:17;7.60;99.90
51765;DHT22;37835;53.256;6.456;2023-04-12T05:27:46;7.60;99.90
51765;DHT22;37835;53.256;6.456;2023-04-12T05:30:11;7.60;99.90
51765;DHT22;37835;53.256;6.456;2023-04-12T05:32:37;7.60;99.90
51765;DHT22;37835;53.256;6.456;2023-04-12T05:35:03;7.60;99.90
51765;DHT22;37835;53.256;6.456;2023-04-12T05:37:28;7.60;99.90
51765;DHT22;37835;53.256;6.456;2023-04-12T05:39:54;8.40;99.90
51765;DHT22;37835;53.256;6.456;2023-04-12T05:42:20;7.50;99.90
51765;DHT22;37835;53.256;6.456;2023-04-12T05:44:45;7.50;99.90
51765;DHT22;37835;53.256;6.456;2023-04-12T05:49:40;7.50;99.90
51765;DHT22;37835;53.256;6.456;2023-04-12T05:52:06;8.70;99.90
51765;DHT22;37835;53.256;6.456;2023-04-12T05:54:32;7.50;99.90
51765;DHT22;37835;53.256;6.456;2023-04-12T05:56:57;7.50;99.90
51765;DHT22;37835;53.256;6.456;2023-04-12T05:59:23;7.50;99.90
51765;DHT22;37835;53.256;6.456;2023-04-12T06:01:48;7.50;99.90
51765;DHT22;37835;53.256;6.456;2023-04-12T06:04:14;7.50;99.90
51765;DHT22;37835;53.256;6.456;2023-04-12T06:06:40;7.50;99.90
51765;DHT22;37835;53.256;6.456;2023-04-12T06:09:06;7.50;99.90
51765;DHT22;37835;53.256;6.456;2023-04-12T06:11:31;7.50;99.90
51765;DHT22;37835;53.256;6.456;2023-04-12T06:14:00;7.50;99.90
51765;DHT22;37835;53.256;6.456;2023-04-12T06:16:26;7.50;99.90
51765;DHT22;37835;53.256;6.456;2023-04-12T06:18:52;7.50;99.90
51765;DHT22;37835;53.256;6.456;2023-04-12T06:21:18;7.70;99.90
51765;DHT22;37835;53.256;6.456;2023-04-12T06:23:43;7.50;99.90
51765;DHT22;37835;53.256;6.456;2023-04-12T06:26:09;7.50;99.90
51765;DHT22;37835;53.256;6.456;2023-04-12T06:28:35;7.50;99.90
51765;DHT22;37835;53.256;6.456;2023-04-12T06:31:01;7.50;99.90
51765;DHT22;37835;53.256;6.456;2023-04-12T06:33:27;7.50;99.90
51765;DHT22;37835;53.256;6.456;2023-04-12T06:35:52;7.50;99.90
51765;DHT22;37835;53.256;6.456;2023-04-12T06:38:18;7.50;99.90
51765;DHT22;37835;53.256;6.456;2023-04-12T06:40:44;7.50;99.90
51765;DHT22;37835;53.256;6.456;2023-04-12T06:43:09;7.50;99.90
51765;DHT22;37835;53.256;6.456;2023-04-12T06:45:35;7.50;99.90
51765;DHT22;37835;53.256;6.456;2023-04-12T06:48:01;7.50;99.90
51765;DHT22;37835;53.256;6.456;2023-04-12T06:50:26;7.50;99.90
51765;DHT22;37835;53.256;6.456;2023-04-12T06:52:52;7.50;99.90
51765;DHT22;37835;53.256;6.456;2023-04-12T06:55:17;7.50;99.90
51765;DHT22;37835;53.256;6.456;2023-04-12T06:57:43;7.50;99.90
51765;DHT22;37835;53.256;6.456;2023-04-12T07:00:11;7.50;99.90
51765;DHT22;37835;53.256;6.456;2023-04-12T07:02:37;7.50;99.90
51765;DHT22;37835;53.256;6.456;2023-04-12T07:05:06;7.50;99.90
51765;DHT22;37835;53.256;6.456;2023-04-12T07:07:32;7.50;99.90
51765;DHT22;37835;53.256;6.456;2023-04-12T07:09:58;7.50;99.90
51765;DHT22;37835;53.256;6.456;2023-04-12T07:12:24;7.50;99.90
51765;DHT22;37835;53.256;6.456;2023-04-12T07:14:50;7.50;99.90
51765;DHT22;37835;53.256;6.456;2023-04-12T07:17:15;7.50;99.90
51765;DHT22;37835;53.256;6.456;2023-04-12T07:19:41;7.50;99.90
51765;DHT22;37835;53.256;6.456;2023-04-12T07:22:08;7.50;99.90
51765;DHT22;37835;53.256;6.456;2023-04-12T07:24:33;7.50;99.90
51765;DHT22;37835;53.256;6.456;2023-04-12T07:26:59;7.50;99.90
51765;DHT22;37835;53.256;6.456;2023-04-12T07:29:25;7.50;99.90
51765;DHT22;37835;53.256;6.456;2023-04-12T07:31:50;7.50;99.90
51765;DHT22;37835;53.256;6.456;2023-04-12T07:34:16;7.50;99.90
51765;DHT22;37835;53.256;6.456;2023-04-12T07:36:41;7.50;99.90
51765;DHT22;37835;53.256;6.456;2023-04-12T07:39:08;7.50;99.90
51765;DHT22;37835;53.256;6.456;2023-04-12T07:41:42;7.50;99.90
51765;DHT22;37835;53.256;6.456;2023-04-12T07:44:10;7.50;99.90
51765;DHT22;37835;53.256;6.456;2023-04-12T07:46:37;7.50;99.90
51765;DHT22;37835;53.256;6.456;2023-04-12T07:49:02;7.50;99.90
51765;DHT22;37835;53.256;6.456;2023-04-12T07:51:28;7.50;99.90
51765;DHT22;37835;53.256;6.456;2023-04-12T07:53:54;7.50;99.90
51765;DHT22;37835;53.256;6.456;2023-04-12T07:56:19;7.50;99.90
51765;DHT22;37835;53.256;6.456;2023-04-12T07:58:45;7.60;99.90
51765;DHT22;37835;53.256;6.456;2023-04-12T08:01:13;7.60;99.90
51765;DHT22;37835;53.256;6.456;2023-04-12T08:03:39;7.60;99.90
51765;DHT22;37835;53.256;6.456;2023-04-12T08:06:05;7.60;99.90
51765;DHT22;37835;53.256;6.456;2023-04-12T08:08:31;7.60;99.90
51765;DHT22;37835;53.256;6.456;2023-04-12T08:10:56;7.60;99.90
51765;DHT22;37835;53.256;6.456;2023-04-12T08:13:22;7.70;99.90
51765;DHT22;37835;53.256;6.456;2023-04-12T08:15:47;7.70;99.90
51765;DHT22;37835;53.256;6.456;2023-04-12T08:18:13;7.70;99.90
51765;DHT22;37835;53.256;6.456;2023-04-12T08:20:39;7.70;99.90
51765;DHT22;37835;53.256;6.456;2023-04-12T08:23:05;7.70;99.90
51765;DHT22;37835;53.256;6.456;2023-04-12T08:25:32;7.80;99.90
51765;DHT22;37835;53.256;6.456;2023-04-12T08:27:58;7.80;99.90
51765;DHT22;37835;53.256;6.456;2023-04-12T08:30:24;7.80;99.90
51765;DHT22;37835;53.256;6.456;2023-04-12T08:32:51;7.80;99.90
51765;DHT22;37835;53.256;6.456;2023-04-12T08:35:18;7.90;99.90
51765;DHT22;37835;53.256;6.456;2023-04-12T08:37:44;7.90;99.90
51765;DHT22;37835;53.256;6.456;2023-04-12T08:40:09;7.90;99.90
51765;DHT22;37835;53.256;6.456;2023-04-12T08:42:36;7.90;99.90
51765;DHT22;37835;53.256;6.456;2023-04-12T08:45:08;7.90;99.90
51765;DHT22;37835;53.256;6.456;2023-04-12T08:47:37;8.00;99.90
51765;DHT22;37835;53.256;6.456;2023-04-12T08:50:04;8.00;99.90
51765;DHT22;37835;53.256;6.456;2023-04-12T08:52:34;8.00;99.90
51765;DHT22;37835;53.256;6.456;2023-04-12T08:55:07;9.10;99.90
51765;DHT22;37835;53.256;6.456;2023-04-12T08:57:39;8.00;99.90
51765;DHT22;37835;53.256;6.456;2023-04-12T09:00:07;7.90;99.90
51765;DHT22;37835;53.256;6.456;2023-04-12T09:02:36;8.00;99.90
51765;DHT22;37835;53.256;6.456;2023-04-12T09:05:03;8.00;99.90
51765;DHT22;37835;53.256;6.456;2023-04-12T09:07:29;8.00;99.90
51765;DHT22;37835;53.256;6.456;2023-04-12T09:09:56;8.00;99.90
51765;DHT22;37835;53.256;6.456;2023-04-12T09:12:22;8.10;99.90
51765;DHT22;37835;53.256;6.456;2023-04-12T09:15:07;8.10;99.90
51765;DHT22;37835;53.256;6.456;2023-04-12T09:17:33;8.10;99.90
51765;DHT22;37835;53.256;6.456;2023-04-12T09:20:02;8.20;99.90
51765;DHT22;37835;53.256;6.456;2023-04-12T09:22:36;8.20;99.90
51765;DHT22;37835;53.256;6.456;2023-04-12T09:25:04;8.20;99.90
51765;DHT22;37835;53.256;6.456;2023-04-12T09:27:44;8.30;99.90
51765;DHT22;37835;53.256;6.456;2023-04-12T09:30:11;8.30;99.90
51765;DHT22;37835;53.256;6.456;2023-04-12T09:32:37;8.30;99.90
51765;DHT22;37835;53.256;6.456;2023-04-12T09:35:02;8.40;99.90
51765;DHT22;37835;53.256;6.456;2023-04-12T09:37:30;8.40;99.90
51765;DHT22;37835;53.256;6.456;2023-04-12T09:40:03;8.50;99.90
51765;DHT22;37835;53.256;6.456;2023-04-12T09:42:29;8.50;99.90
51765;DHT22;37835;53.256;6.456;2023-04-12T09:44:56;8.60;99.90
51765;DHT22;37835;53.256;6.456;2023-04-12T09:47:35;8.70;99.90
51765;DHT22;37835;53.256;6.456;2023-04-12T09:50:02;8.80;99.90
51765;DHT22;37835;53.256;6.456;2023-04-12T09:52:35;8.80;99.90
51765;DHT22;37835;53.256;6.456;2023-04-12T09:55:01;8.90;99.90
51765;DHT22;37835;53.256;6.456;2023-04-12T09:57:27;9.00;99.90
51765;DHT22;37835;53.256;6.456;2023-04-12T09:59:57;9.00;99.90
51765;DHT22;37835;53.256;6.456;2023-04-12T10:02:26;9.10;99.90
51765;DHT22;37835;53.256;6.456;2023-04-12T10:04:52;9.20;99.90
51765;DHT22;37835;53.256;6.456;2023-04-12T10:07:19;9.20;99.90
51765;DHT22;37835;53.256;6.456;2023-04-12T10:09:45;9.40;99.90
51765;DHT22;37835;53.256;6.456;2023-04-12T10:12:11;9.50;99.90
51765;DHT22;37835;53.256;6.456;2023-04-12T10:14:36;9.60;99.90
51765;DHT22;37835;53.256;6.456;2023-04-12T10:17:03;9.80;99.90
51765;DHT22;37835;53.256;6.456;2023-04-12T10:19:31;9.90;99.90
51765;DHT22;37835;53.256;6.456;2023-04-12T10:21:59;9.90;99.90
51765;DHT22;37835;53.256;6.456;2023-04-12T10:24:27;10.00;99.90
51765;DHT22;37835;53.256;6.456;2023-04-12T10:26:54;10.10;99.90
51765;DHT22;37835;53.256;6.456;2023-04-12T10:29:23;10.10;99.90
51765;DHT22;37835;53.256;6.456;2023-04-12T10:31:50;10.20;99.90
51765;DHT22;37835;53.256;6.456;2023-04-12T10:34:16;10.30;99.90
51765;DHT22;37835;53.256;6.456;2023-04-12T10:36:59;10.40;99.90
51765;DHT22;37835;53.256;6.456;2023-04-12T10:39:37;10.50;99.90
51765;DHT22;37835;53.256;6.456;2023-04-12T10:42:21;10.60;99.90
51765;DHT22;37835;53.256;6.456;2023-04-12T10:44:51;10.60;99.90
51765;DHT22;37835;53.256;6.456;2023-04-12T10:47:54;10.70;99.90
51765;DHT22;37835;53.256;6.456;2023-04-12T10:50:29;10.80;99.90
51765;DHT22;37835;53.256;6.456;2023-04-12T10:55:47;11.00;99.90
51765;DHT22;37835;53.256;6.456;2023-04-12T11:01:13;11.20;99.90
51765;DHT22;37835;53.256;6.456;2023-04-12T11:04:09;11.10;99.90
51765;DHT22;37835;53.256;6.456;2023-04-12T11:06:42;11.10;99.90
51765;DHT22;37835;53.256;6.456;2023-04-12T11:09:25;11.10;99.90
51765;DHT22;37835;53.256;6.456;2023-04-12T11:12:17;11.10;99.90
51765;DHT22;37835;53.256;6.456;2023-04-12T11:19:39;11.00;99.90
51765;DHT22;37835;53.256;6.456;2023-04-12T11:22:10;11.00;99.90
51765;DHT22;37835;53.256;6.456;2023-04-12T11:24:44;11.00;99.90
51765;DHT22;37835;53.256;6.456;2023-04-12T11:27:10;11.00;99.90
51765;DHT22;37835;53.256;6.456;2023-04-12T11:29:36;11.00;99.90
51765;DHT22;37835;53.256;6.456;2023-04-12T11:32:03;11.00;99.90
51765;DHT22;37835;53.256;6.456;2023-04-12T11:34:33;11.00;99.90
51765;DHT22;37835;53.256;6.456;2023-04-12T11:37:02;11.10;99.90
51765;DHT22;37835;53.256;6.456;2023-04-12T11:39:36;11.10;99.90
51765;DHT22;37835;53.256;6.456;2023-04-12T11:42:03;11.10;99.90
51765;DHT22;37835;53.256;6.456;2023-04-12T11:44:31;11.20;99.90
51765;DHT22;37835;53.256;6.456;2023-04-12T11:46:57;11.30;99.90
51765;DHT22;37835;53.256;6.456;2023-04-12T11:49:23;11.40;99.90
51765;DHT22;37835;53.256;6.456;2023-04-12T11:52:03;11.50;99.90
51765;DHT22;37835;53.256;6.456;2023-04-12T11:54:29;11.50;99.90
51765;DHT22;37835;53.256;6.456;2023-04-12T11:56:57;11.60;99.90
51765;DHT22;37835;53.256;6.456;2023-04-12T11:59:30;11.60;99.90
51765;DHT22;37835;53.256;6.456;2023-04-12T12:01:57;11.60;99.90
51765;DHT22;37835;53.256;6.456;2023-04-12T12:04:24;11.70;99.90
51765;DHT22;37835;53.256;6.456;2023-04-12T12:06:50;11.60;99.90
51765;DHT22;37835;53.256;6.456;2023-04-12T12:09:16;11.60;99.90
51765;DHT22;37835;53.256;6.456;2023-04-12T12:11:42;11.50;99.90
51765;DHT22;37835;53.256;6.456;2023-04-12T12:14:08;11.50;99.90
51765;DHT22;37835;53.256;6.456;2023-04-12T12:16:33;11.50;99.90
51765;DHT22;37835;53.256;6.456;2023-04-12T12:19:02;11.50;99.90
51765;DHT22;37835;53.256;6.456;2023-04-12T12:21:29;11.50;99.90
51765;DHT22;37835;53.256;6.456;2023-04-12T12:23:55;11.50;99.90
51765;DHT22;37835;53.256;6.456;2023-04-12T12:26:26;11.40;99.90
51765;DHT22;37835;53.256;6.456;2023-04-12T12:28:56;11.40;99.90
51765;DHT22;37835;53.256;6.456;2023-04-12T12:31:25;11.40;99.90
51765;DHT22;37835;53.256;6.456;2023-04-12T12:33:59;11.40;99.90
51765;DHT22;37835;53.256;6.456;2023-04-12T12:36:32;11.30;99.90
51765;DHT22;37835;53.256;6.456;2023-04-12T12:39:08;11.40;99.90
51765;DHT22;37835;53.256;6.456;2023-04-12T12:41:40;11.40;99.90
51765;DHT22;37835;53.256;6.456;2023-04-12T12:44:05;11.50;99.90
51765;DHT22;37835;53.256;6.456;2023-04-12T12:46:32;11.60;99.90
51765;DHT22;37835;53.256;6.456;2023-04-12T12:48:57;11.80;99.90
51765;DHT22;37835;53.256;6.456;2023-04-12T12:51:23;11.90;99.90
51765;DHT22;37835;53.256;6.456;2023-04-12T12:53:48;12.00;99.90
51765;DHT22;37835;53.256;6.456;2023-04-12T12:56:15;12.00;99.90
51765;DHT22;37835;53.256;6.456;2023-04-12T12:58:41;12.00;99.90
51765;DHT22;37835;53.256;6.456;2023-04-12T13:01:07;12.00;99.90
51765;DHT22;37835;53.256;6.456;2023-04-12T13:03:33;12.00;99.90
51765;DHT22;37835;53.256;6.456;2023-04-12T13:05:59;12.00;99.90
51765;DHT22;37835;53.256;6.456;2023-04-12T13:08:25;12.00;99.90
51765;DHT22;37835;53.256;6.456;2023-04-12T13:10:51;12.00;99.90
51765;DHT22;37835;53.256;6.456;2023-04-12T13:13:18;12.00;99.90
51765;DHT22;37835;53.256;6.456;2023-04-12T13:15:43;12.00;99.90
51765;DHT22;37835;53.256;6.456;2023-04-12T13:18:11;12.00;99.90
51765;DHT22;37835;53.256;6.456;2023-04-12T13:20:40;12.10;99.90
51765;DHT22;37835;53.256;6.456;2023-04-12T13:23:05;12.20;99.90
51765;DHT22;37835;53.256;6.456;2023-04-12T13:25:31;12.20;99.90
51765;DHT22;37835;53.256;6.456;2023-04-12T13:27:57;12.20;99.90
51765;DHT22;37835;53.256;6.456;2023-04-12T13:30:22;12.10;99.90
51765;DHT22;37835;53.256;6.456;2023-04-12T13:32:48;12.10;99.90
51765;DHT22;37835;53.256;6.456;2023-04-12T13:35:14;12.00;99.90
51765;DHT22;37835;53.256;6.456;2023-04-12T13:37:39;11.90;99.90
51765;DHT22;37835;53.256;6.456;2023-04-12T13:40:06;11.80;99.90
51765;DHT22;37835;53.256;6.456;2023-04-12T13:42:32;11.70;99.90
51765;DHT22;37835;53.256;6.456;2023-04-12T13:44:58;11.70;99.90
51765;DHT22;37835;53.256;6.456;2023-04-12T13:47:24;11.70;99.90
51765;DHT22;37835;53.256;6.456;2023-04-12T13:49:50;11.70;99.90
51765;DHT22;37835;53.256;6.456;2023-04-12T13:52:16;11.70;99.90
51765;DHT22;37835;53.256;6.456;2023-04-12T13:54:41;11.60;99.90
51765;DHT22;37835;53.256;6.456;2023-04-12T13:57:08;11.60;99.90
51765;DHT22;37835;53.256;6.456;2023-04-12T13:59:33;11.50;99.90
51765;DHT22;37835;53.256;6.456;2023-04-12T14:02:00;11.60;99.90
51765;DHT22;37835;53.256;6.456;2023-04-12T14:04:29;11.60;99.90
51765;DHT22;37835;53.256;6.456;2023-04-12T14:06:56;11.50;99.90
51765;DHT22;37835;53.256;6.456;2023-04-12T14:09:26;11.50;99.90
51765;DHT22;37835;53.256;6.456;2023-04-12T14:11:53;11.50;99.90
51765;DHT22;37835;53.256;6.456;2023-04-12T14:14:23;11.50;99.90
51765;DHT22;37835;53.256;6.456;2023-04-12T14:16:50;11.50;99.90
51765;DHT22;37835;53.256;6.456;2023-04-12T14:19:20;11.60;99.90
51765;DHT22;37835;53.256;6.456;2023-04-12T14:21:46;11.60;99.90
51765;DHT22;37835;53.256;6.456;2023-04-12T14:24:12;11.60;99.90
51765;DHT22;37835;53.256;6.456;2023-04-12T14:26:38;11.60;99.90
51765;DHT22;37835;53.256;6.456;2023-04-12T14:29:07;11.50;99.90
51765;DHT22;37835;53.256;6.456;2023-04-12T14:31:33;11.60;99.90
51765;DHT22;37835;53.256;6.456;2023-04-12T14:34:03;11.60;99.90
51765;DHT22;37835;53.256;6.456;2023-04-12T14:36:29;11.60;99.90
51765;DHT22;37835;53.256;6.456;2023-04-12T14:38:56;11.50;99.90
51765;DHT22;37835;53.256;6.456;2023-04-12T14:41:21;11.50;99.90
51765;DHT22;37835;53.256;6.456;2023-04-12T14:43:47;11.50;99.90
51765;DHT22;37835;53.256;6.456;2023-04-12T14:46:16;11.40;99.90
51765;DHT22;37835;53.256;6.456;2023-04-12T14:48:41;11.40;99.90
51765;DHT22;37835;53.256;6.456;2023-04-12T14:51:07;11.30;99.90
51765;DHT22;37835;53.256;6.456;2023-04-12T14:53:33;11.30;99.90
51765;DHT22;37835;53.256;6.456;2023-04-12T14:55:59;11.30;99.90
51765;DHT22;37835;53.256;6.456;2023-04-12T14:58:28;11.30;99.90
51765;DHT22;37835;53.256;6.456;2023-04-12T15:00:57;11.30;99.90
51765;DHT22;37835;53.256;6.456;2023-04-12T15:03:24;11.30;99.90
51765;DHT22;37835;53.256;6.456;2023-04-12T15:05:51;11.40;99.90
51765;DHT22;37835;53.256;6.456;2023-04-12T15:08:17;11.40;99.90
51765;DHT22;37835;53.256;6.456;2023-04-12T15:10:43;11.40;99.90
51765;DHT22;37835;53.256;6.456;2023-04-12T15:13:09;11.50;99.90
51765;DHT22;37835;53.256;6.456;2023-04-12T15:15:35;11.50;99.90
51765;DHT22;37835;53.256;6.456;2023-04-12T15:18:00;11.60;99.90
51765;DHT22;37835;53.256;6.456;2023-04-12T15:20:27;11.70;99.90
51765;DHT22;37835;53.256;6.456;2023-04-12T15:22:53;11.70;99.90
51765;DHT22;37835;53.256;6.456;2023-04-12T15:25:19;11.70;99.90
51765;DHT22;37835;53.256;6.456;2023-04-12T15:27:46;11.80;99.90
51765;DHT22;37835;53.256;6.456;2023-04-12T15:30:13;11.90;99.90
51765;DHT22;37835;53.256;6.456;2023-04-12T15:32:40;12.00;99.90
51765;DHT22;37835;53.256;6.456;2023-04-12T15:35:06;12.10;99.90
51765;DHT22;37835;53.256;6.456;2023-04-12T15:37:33;12.10;99.90
51765;DHT22;37835;53.256;6.456;2023-04-12T15:40:00;12.10;99.90
51765;DHT22;37835;53.256;6.456;2023-04-12T15:42:26;12.10;99.90
51765;DHT22;37835;53.256;6.456;2023-04-12T15:44:51;12.20;99.90
51765;DHT22;37835;53.256;6.456;2023-04-12T15:47:17;12.20;99.90
51765;DHT22;37835;53.256;6.456;2023-04-12T15:49:43;12.30;99.90
51765;DHT22;37835;53.256;6.456;2023-04-12T15:52:08;12.20;99.90
51765;DHT22;37835;53.256;6.456;2023-04-12T15:54:34;12.30;99.90
51765;DHT22;37835;53.256;6.456;2023-04-12T15:57:06;12.20;99.90
51765;DHT22;37835;53.256;6.456;2023-04-12T15:59:33;12.20;99.90
51765;DHT22;37835;53.256;6.456;2023-04-12T16:01:59;12.20;99.90
51765;DHT22;37835;53.256;6.456;2023-04-12T16:04:25;12.10;99.90
51765;DHT22;37835;53.256;6.456;2023-04-12T16:06:51;12.20;99.90